Time;durP1;ratioP1;P1;durP2;ratioP2;P2;SDS_P1;SDS_P2;PMS_P1;PMS_P2;Temp;Humidity;BMP_temperature;BMP_pressure;BME280_temperature;BME280_humidity;BME280_pressure;Samples;Min_cycle;Max_cycle;Signal;HPM_P1;HPM_P2
2023/12/05 00:00:32;;;;;;;25.33;16.73;;;;;;;14.54;50.62;100060.41;5031679;28;20174;-38
2023/12/05 00:02:59;;;;;;;24.73;16.95;;;;;;;14.54;50.72;100062.25;5034507;28;20050;-38
2023/12/05 00:05:26;;;;;;;24.50;17.17;;;;;;;14.54;50.64;100062.25;5032000;28;20053;-38
2023/12/05 00:07:52;;;;;;;24.70;16.42;;;;;;;14.53;50.51;100064.06;5030533;28;20344;-38
2023/12/05 00:10:19;;;;;;;24.58;16.17;;;;;;;14.53;51.08;100058.75;5028609;28;20060;-38
2023/12/05 00:12:46;;;;;;;24.77;16.70;;;;;;;14.52;50.52;100058.91;5034399;28;20045;-38
2023/12/05 00:15:13;;;;;;;23.73;15.50;;;;;;;14.59;51.33;100054.63;5029738;28;20049;-38
2023/12/05 00:17:40;;;;;;;23.67;16.13;;;;;;;14.72;51.09;100063.13;5030380;28;20044;-38
2023/12/05 00:20:07;;;;;;;20.38;14.88;;;;;;;14.85;50.49;100056.56;5031539;28;20429;-38
2023/12/05 00:22:35;;;;;;;21.00;14.70;;;;;;;14.95;50.22;100049.31;5030693;28;20060;-38
2023/12/05 00:25:02;;;;;;;20.67;13.98;;;;;;;15.06;49.73;100046.41;5031427;28;20045;-38
2023/12/05 00:27:29;;;;;;;20.67;14.23;;;;;;;15.18;49.63;100042.50;5035640;28;20148;-38
2023/12/05 00:29:56;;;;;;;19.08;13.63;;;;;;;15.26;49.36;100045.25;5031709;28;20455;-38
2023/12/05 00:32:22;;;;;;;19.05;13.60;;;;;;;15.36;49.63;100044.34;5030248;28;20087;-38
2023/12/05 00:34:49;;;;;;;21.98;13.65;;;;;;;15.43;49.12;100053.38;5034312;28;20136;-38
2023/12/05 00:37:16;;;;;;;18.08;13.10;;;;;;;15.47;49.45;100042.22;5030548;28;20053;-38
2023/12/05 00:39:42;;;;;;;19.50;13.43;;;;;;;15.51;49.01;100037.41;5031491;28;20073;-38
2023/12/05 00:42:09;;;;;;;18.98;12.65;;;;;;;15.52;49.35;100028.44;5030417;28;20048;-38
2023/12/05 00:44:35;;;;;;;19.00;12.88;;;;;;;15.53;49.29;100033.59;5035627;28;20069;-38
2023/12/05 00:47:04;;;;;;;18.60;12.80;;;;;;;15.55;49.05;100033.44;5027785;28;20104;-38
2023/12/05 00:49:34;;;;;;;19.40;13.20;;;;;;;15.57;48.85;100033.28;5033137;28;20096;-37
2023/12/05 00:52:01;;;;;;;17.92;13.23;;;;;;;15.57;48.91;100030.63;5033896;28;20057;-37
2023/12/05 00:54:27;;;;;;;18.20;12.07;;;;;;;15.58;48.89;100029.63;5032537;28;20048;-37
2023/12/05 00:56:55;;;;;;;16.77;11.32;;;;;;;15.58;49.71;100030.44;5030725;28;20081;-37
2023/12/05 00:59:21;;;;;;;15.00;10.13;;;;;;;15.58;49.72;100038.47;5032720;28;20071;-37
2023/12/05 01:01:48;;;;;;;16.67;11.80;;;;;;;15.58;48.58;100034.97;5032122;28;20049;-37
2023/12/05 01:04:15;;;;;;;16.92;11.88;;;;;;;15.58;49.47;100032.28;5031410;28;20057;-37
2023/12/05 01:06:42;;;;;;;15.25;10.80;;;;;;;15.58;48.85;100032.28;5031263;28;20041;-37
2023/12/05 01:09:10;;;;;;;15.95;11.27;;;;;;;15.57;49.59;100028.78;5026204;28;20072;-38
2023/12/05 01:11:37;;;;;;;13.95;10.35;;;;;;;15.58;49.19;100032.28;5030325;28;20385;-37
2023/12/05 01:14:03;;;;;;;15.63;10.88;;;;;;;15.55;48.95;100031.59;5037560;28;20053;-37
2023/12/05 01:16:30;;;;;;;14.13;9.85;;;;;;;15.53;48.76;100036.28;5033499;28;20041;-37
2023/12/05 01:18:57;;;;;;;14.35;9.95;;;;;;;15.50;48.40;100033.91;5035343;28;20387;-37
2023/12/05 01:21:23;;;;;;;14.20;10.20;;;;;;;15.45;48.26;100040.72;5037924;28;20042;-37
2023/12/05 01:23:50;;;;;;;14.10;9.98;;;;;;;15.39;48.84;100044.00;5032541;28;20054;-37
2023/12/05 01:26:16;;;;;;;14.85;10.23;;;;;;;15.33;48.60;100039.31;5029898;28;20450;-37
2023/12/05 01:28:43;;;;;;;12.60;9.38;;;;;;;15.25;49.45;100034.72;5034447;28;20080;-37
2023/12/05 01:31:10;;;;;;;14.82;10.00;;;;;;;15.16;48.76;100031.16;5033380;28;20041;-37
2023/12/05 01:33:36;;;;;;;12.35;8.90;;;;;;;15.08;50.05;100035.59;5033782;28;20081;-37
2023/12/05 01:36:09;;;;;;;13.88;9.88;;;;;;;14.98;50.36;100038.34;5032455;28;20049;-37
2023/12/05 01:38:35;;;;;;;12.15;9.13;;;;;;;14.92;50.25;100038.97;5029959;28;20045;-37
2023/12/05 01:41:02;;;;;;;11.85;8.68;;;;;;;14.87;49.82;100041.22;5030690;28;20077;-37
2023/12/05 01:43:29;;;;;;;12.77;9.18;;;;;;;14.94;49.91;100042.31;5030211;28;20140;-37
2023/12/05 01:45:56;;;;;;;11.98;8.57;;;;;;;15.03;50.26;100033.38;5033040;28;20397;-37
2023/12/05 01:48:23;;;;;;;10.82;8.40;;;;;;;15.14;49.62;100040.31;5032977;28;20064;-37
2023/12/05 01:50:52;;;;;;;12.48;8.73;;;;;;;15.24;50.25;100039.25;5029250;28;20072;-37
2023/12/05 01:53:20;;;;;;;11.15;8.07;;;;;;;15.36;49.60;100041.66;5028079;28;21205;-37
2023/12/05 01:55:47;;;;;;;12.40;8.73;;;;;;;15.45;49.99;100046.06;5025320;28;20046;-37
2023/12/05 01:58:15;;;;;;;11.43;8.02;;;;;;;15.54;49.06;100037.09;5029663;28;20095;-37
2023/12/05 02:00:42;;;;;;;11.38;7.68;;;;;;;15.62;49.21;100033.66;5032006;28;20079;-37
2023/12/05 02:03:09;;;;;;;12.45;8.20;;;;;;;15.70;49.68;100039.91;5033486;28;20053;-38
2023/12/05 02:05:37;;;;;;;11.65;7.80;;;;;;;15.76;48.92;100038.47;5030594;28;20060;-37
2023/12/05 02:08:06;;;;;;;11.63;8.60;;;;;;;15.81;49.10;100037.97;5029410;28;20132;-38
2023/12/05 02:10:32;;;;;;;8.88;7.07;;;;;;;15.84;48.76;100042.97;5029337;28;20076;-37
2023/12/05 02:12:59;;;;;;;11.13;7.65;;;;;;;15.88;48.49;100033.66;5032769;28;20132;-37
2023/12/05 02:15:26;;;;;;;10.60;7.40;;;;;;;15.90;48.72;100042.34;5033491;28;20049;-37
2023/12/05 02:18:05;;;;;;;9.95;7.30;;;;;;;15.90;48.20;100043.19;5034301;28;20053;-37
2023/12/05 02:20:36;;;;;;;9.77;6.93;;;;;;;15.92;49.11;100053.72;5031696;28;20059;-37
2023/12/05 02:23:21;;;;;;;10.57;6.63;;;;;;;15.91;49.27;100050.19;5029445;28;20080;-37
2023/12/05 02:25:55;;;;;;;9.65;6.75;;;;;;;15.90;48.89;100056.56;5031260;28;20045;-37
2023/12/05 02:28:24;;;;;;;9.32;7.03;;;;;;;15.91;49.20;100063.56;5030476;28;20057;-38
2023/12/05 02:30:50;;;;;;;10.45;7.40;;;;;;;15.89;49.19;100057.56;5029908;28;20121;-38
2023/12/05 02:33:17;;;;;;;7.43;5.95;;;;;;;15.87;48.43;100053.34;5028879;28;20076;-38
2023/12/05 02:35:46;;;;;;;9.38;6.38;;;;;;;15.87;48.48;100053.34;5028645;28;20361;-37
2023/12/05 02:38:20;;;;;;;9.30;6.90;;;;;;;15.84;48.64;100053.66;5024710;28;20045;-37
2023/12/05 02:40:56;;;;;;;8.48;6.40;;;;;;;15.83;48.54;100044.81;5028116;28;20462;-37
2023/12/05 02:43:29;;;;;;;8.40;6.60;;;;;;;15.84;48.56;100046.50;5029312;28;20076;-37
2023/12/05 02:45:57;;;;;;;;;;;;;;;15.82;48.93;100045.81;5031315;28;20509;-37
2023/12/05 02:48:36;;;;;;;7.22;5.82;;;;;;;15.86;48.50;100049.84;5032274;28;19929;-37
2023/12/05 02:51:03;;;;;;;7.82;5.85;;;;;;;15.85;49.43;100044.69;5028306;28;20124;-37
2023/12/05 02:53:30;;;;;;;7.20;5.40;;;;;;;15.84;48.17;100056.34;5026907;28;20422;-37
2023/12/05 02:55:56;;;;;;;8.98;6.35;;;;;;;15.83;49.23;100054.66;5026639;28;20103;-37
2023/12/05 02:58:23;;;;;;;6.78;5.38;;;;;;;15.82;49.19;100051.16;5032628;28;20151;-37
2023/12/05 03:00:49;;;;;;;7.50;5.47;;;;;;;15.83;48.23;100058.19;5022781;28;20103;-37
2023/12/05 03:03:16;;;;;;;6.68;5.30;;;;;;;15.83;48.24;100052.00;5021762;28;20072;-38
2023/12/05 03:05:43;;;;;;;8.02;5.90;;;;;;;15.84;48.48;100053.66;5016743;28;21145;-37
2023/12/05 03:08:10;;;;;;;6.32;4.95;;;;;;;15.85;48.40;100056.19;5025444;28;20037;-38
2023/12/05 03:10:36;;;;;;;7.18;5.03;;;;;;;15.88;48.21;100053.22;5025771;28;20056;-38
2023/12/05 03:13:03;;;;;;;7.20;5.50;;;;;;;15.91;49.48;100054.72;5025962;28;20387;-37
2023/12/05 03:15:29;;;;;;;6.30;5.13;;;;;;;15.94;48.53;100060.59;5026367;28;20064;-38
2023/12/05 03:17:56;;;;;;;7.63;5.22;;;;;;;16.00;48.55;100051.06;5022828;28;20041;-37
2023/12/05 03:20:23;;;;;;;5.43;4.75;;;;;;;16.03;48.91;100058.78;5024840;28;20053;-38
2023/12/05 03:22:49;;;;;;;5.95;4.88;;;;;;;16.07;48.84;100061.97;5028772;28;20100;-38
2023/12/05 03:25:16;;;;;;;6.60;4.65;;;;;;;16.10;48.41;100057.16;5017967;28;20454;-37
2023/12/05 03:27:43;;;;;;;6.10;4.72;;;;;;;16.12;48.83;100051.63;5028412;28;20040;-38
2023/12/05 03:30:10;;;;;;;6.22;4.78;;;;;;;16.12;48.58;100054.31;5023740;28;20132;-38
2023/12/05 03:32:36;;;;;;;5.55;4.10;;;;;;;16.10;48.36;100049.13;5025564;28;20123;-37
2023/12/05 03:35:04;;;;;;;5.28;4.10;;;;;;;16.07;48.89;100049.44;5028972;28;20088;-38
2023/12/05 03:37:30;;;;;;;6.13;4.30;;;;;;;16.04;48.23;100050.63;5027006;28;20448;-37
2023/12/05 03:39:57;;;;;;;5.18;4.30;;;;;;;16.02;49.05;100052.59;5026949;28;20472;-37
2023/12/05 03:42:23;;;;;;;5.90;4.63;;;;;;;15.99;49.22;100052.91;5029490;28;20051;-38
2023/12/05 03:44:50;;;;;;;5.15;4.22;;;;;;;15.97;48.47;100044.22;5027953;28;20049;-37
2023/12/05 03:47:16;;;;;;;5.72;4.47;;;;;;;15.95;48.53;100040.03;5029611;28;20053;-37
2023/12/05 03:49:43;;;;;;;5.20;4.07;;;;;;;15.94;48.47;100049.06;5029409;28;20042;-38
2023/12/05 03:52:10;;;;;;;4.90;4.28;;;;;;;15.93;48.27;100050.91;5030865;28;20041;-37
2023/12/05 03:54:36;;;;;;;5.18;3.80;;;;;;;15.92;48.78;100045.69;5031471;28;20058;-37
2023/12/05 03:57:03;;;;;;;5.68;4.85;;;;;;;15.90;48.32;100047.69;5032010;28;20041;-38
2023/12/05 03:59:30;;;;;;;5.60;3.80;;;;;;;15.89;49.26;100056.72;5026972;28;20148;-38
2023/12/05 04:01:56;;;;;;;5.50;3.95;;;;;;;15.87;49.19;100053.34;5027927;28;20049;-38
2023/12/05 04:04:23;;;;;;;5.32;3.67;;;;;;;15.85;49.33;100058.88;5030111;28;20053;-37
2023/12/05 04:06:50;;;;;;;5.53;4.28;;;;;;;15.84;48.70;100062.53;5031292;28;20048;-38
2023/12/05 04:09:16;;;;;;;5.18;4.18;;;;;;;15.84;49.03;100056.34;5026915;28;20438;-38
2023/12/05 04:11:43;;;;;;;5.03;4.13;;;;;;;15.82;48.39;100067.19;5032153;28;20131;-38
2023/12/05 04:14:09;;;;;;;5.03;3.78;;;;;;;15.82;48.62;100066.38;5029954;28;20061;-38
2023/12/05 04:16:36;;;;;;;5.00;4.05;;;;;;;15.81;49.15;100072.72;5026120;28;20049;-38
2023/12/05 04:19:03;;;;;;;5.20;4.15;;;;;;;15.79;48.54;100073.69;5029679;28;20153;-38
2023/12/05 04:21:29;;;;;;;5.38;4.13;;;;;;;15.81;49.25;100064.69;5026200;28;20050;-38
2023/12/05 04:23:56;;;;;;;4.38;3.72;;;;;;;15.83;48.54;100074.22;5030691;28;20049;-38
2023/12/05 04:26:23;;;;;;;4.40;3.35;;;;;;;15.84;48.26;100073.25;5027867;28;20385;-38
2023/12/05 04:28:50;;;;;;;4.38;3.60;;;;;;;15.88;48.38;100071.91;5028989;28;20058;-38
2023/12/05 04:31:16;;;;;;;5.45;3.63;;;;;;;15.90;48.28;100066.41;5035067;28;20441;-37
2023/12/05 04:33:43;;;;;;;5.20;3.83;;;;;;;15.93;49.11;100074.13;5027473;28;20073;-37
2023/12/05 04:36:10;;;;;;;4.13;3.05;;;;;;;15.98;48.33;100077.13;5029845;28;20128;-38
2023/12/05 04:38:38;;;;;;;3.88;3.00;;;;;;;16.03;49.21;100080.16;5031825;28;20110;-38
2023/12/05 04:41:05;;;;;;;4.15;3.47;;;;;;;16.06;48.85;100079.84;5023840;28;20430;-37
2023/12/05 04:43:32;;;;;;;4.10;3.17;;;;;;;16.10;49.05;100085.72;5028545;28;20049;-38
2023/12/05 04:45:58;;;;;;;4.40;3.50;;;;;;;16.13;48.76;100083.56;5027761;28;20045;-37
2023/12/05 04:48:25;;;;;;;5.10;3.63;;;;;;;16.14;48.69;100082.56;5025132;28;20434;-37
2023/12/05 04:50:52;;;;;;;3.63;2.95;;;;;;;16.15;48.10;100097.59;5030737;28;20111;-38
2023/12/05 04:53:19;;;;;;;4.32;3.00;;;;;;;16.13;48.91;100090.75;5034789;28;20057;-38
2023/12/05 04:55:45;;;;;;;4.63;3.65;;;;;;;16.12;48.66;100102.44;5033191;28;20103;-37
2023/12/05 04:58:12;;;;;;;4.03;2.97;;;;;;;16.08;49.26;100101.06;5030705;28;20041;-38
2023/12/05 05:00:38;;;;;;;4.07;3.33;;;;;;;16.06;48.82;100108.44;5034400;28;20065;-38
2023/12/05 05:03:05;;;;;;;4.55;3.20;;;;;;;16.02;49.02;100110.56;5031404;28;20072;-37
2023/12/05 05:05:32;;;;;;;4.20;3.30;;;;;;;16.00;48.38;100109.88;5034704;28;20045;-37
2023/12/05 05:07:59;;;;;;;3.63;2.78;;;;;;;16.00;48.26;100112.53;5028985;28;20053;-37
2023/12/05 05:10:26;;;;;;;3.50;2.88;;;;;;;15.98;49.15;100115.38;5021739;28;20393;-37
2023/12/05 05:12:52;;;;;;;4.13;3.33;;;;;;;16.00;49.30;100117.91;5030193;28;20078;-37
2023/12/05 05:15:19;;;;;;;6.25;4.50;;;;;;;16.04;49.00;100130.81;5031623;28;20143;-38
2023/12/05 05:17:46;;;;;;;9.18;6.45;;;;;;;16.11;48.45;100125.66;5028563;28;20056;-38
2023/12/05 05:20:13;;;;;;;12.52;8.45;;;;;;;16.19;49.19;100130.22;5026532;28;20049;-37
2023/12/05 05:22:40;;;;;;;14.35;9.88;;;;;;;16.27;48.70;100135.59;5025395;28;20046;-37
2023/12/05 05:25:06;;;;;;;17.55;11.73;;;;;;;16.34;48.03;100135.81;5027333;28;20475;-37
2023/12/05 05:27:33;;;;;;;16.83;11.48;;;;;;;16.40;47.82;100130.66;5025609;28;20095;-37
2023/12/05 05:30:00;;;;;;;17.70;12.55;;;;;;;16.45;47.50;100130.19;5029328;28;20128;-37
2023/12/05 05:32:26;;;;;;;19.15;12.68;;;;;;;16.49;48.70;100129.69;5026914;28;20389;-37
2023/12/05 05:34:53;;;;;;;17.50;12.52;;;;;;;16.52;48.45;100131.19;5031034;28;20045;-37
2023/12/05 05:37:20;;;;;;;20.45;14.18;;;;;;;16.54;47.72;100121.19;5022413;28;20096;-38
2023/12/05 05:39:47;;;;;;;20.73;14.55;;;;;;;16.56;47.75;100124.53;5025102;28;20070;-37
2023/12/05 05:42:14;;;;;;;19.70;13.68;;;;;;;16.55;48.36;100125.53;5025156;28;20058;-37
2023/12/05 05:44:41;;;;;;;19.30;12.75;;;;;;;16.53;48.12;100127.53;5023682;28;20057;-38
2023/12/05 05:47:08;;;;;;;19.15;13.20;;;;;;;16.48;48.40;100122.69;5022884;28;20041;-38
2023/12/05 05:49:34;;;;;;;23.20;14.35;;;;;;;16.43;47.88;100130.31;5026083;28;20445;-38
2023/12/05 05:52:01;;;;;;;19.65;13.48;;;;;;;16.38;48.14;100138.00;5031040;28;20080;-38
2023/12/05 05:54:28;;;;;;;19.67;12.93;;;;;;;16.33;47.43;100137.66;5027013;28;20096;-38
2023/12/05 05:56:54;;;;;;;17.52;12.73;;;;;;;16.28;47.83;100138.13;5029295;28;20045;-37
2023/12/05 05:59:21;;;;;;;19.58;13.43;;;;;;;16.25;48.34;100137.59;5026044;28;20361;-38
2023/12/05 06:01:48;;;;;;;19.08;12.65;;;;;;;16.22;48.03;100136.06;5026097;28;20049;-37
2023/12/05 06:04:14;;;;;;;18.20;12.75;;;;;;;16.19;47.98;100132.88;5027175;28;20598;-37
2023/12/05 06:06:41;;;;;;;19.77;13.05;;;;;;;16.16;47.77;100139.41;5024973;28;20037;-38
2023/12/05 06:09:09;;;;;;;20.05;13.40;;;;;;;16.15;48.05;100148.41;5025709;28;20100;-37
2023/12/05 06:11:35;;;;;;;18.15;12.13;;;;;;;16.13;48.93;100145.06;5025671;28;20652;-37
2023/12/05 06:14:03;;;;;;;19.33;13.13;;;;;;;16.12;48.37;100150.53;5031836;28;20119;-38
2023/12/05 06:16:29;;;;;;;15.93;11.45;;;;;;;16.09;48.84;100145.53;5028336;28;20505;-38
2023/12/05 06:18:56;;;;;;;19.05;12.65;;;;;;;16.08;48.62;100150.06;5024405;28;20070;-38
2023/12/05 06:21:23;;;;;;;18.27;12.15;;;;;;;16.06;48.13;100146.69;5026398;28;20495;-37
2023/12/05 06:23:49;;;;;;;15.70;11.55;;;;;;;16.04;48.52;100141.50;5021877;28;20054;-38
2023/12/05 06:26:16;;;;;;;16.52;11.30;;;;;;;16.03;47.74;100147.00;5023614;28;20744;-37
2023/12/05 06:28:43;;;;;;;17.17;11.50;;;;;;;16.00;49.01;100150.84;5026281;28;20334;-38
2023/12/05 06:31:09;;;;;;;16.60;11.23;;;;;;;15.97;48.27;100151.13;5026056;28;20076;-38
2023/12/05 06:33:36;;;;;;;16.17;11.30;;;;;;;15.97;48.02;100155.66;5026294;28;20060;-37
2023/12/05 06:36:03;;;;;;;16.17;10.93;;;;;;;15.95;48.35;100160.31;5028593;28;20364;-38
2023/12/05 06:38:30;;;;;;;16.55;11.95;;;;;;;15.95;48.27;100168.31;5025618;28;20053;-37
2023/12/05 06:40:56;;;;;;;17.10;11.35;;;;;;;15.93;47.88;100171.16;5029213;28;20285;-38
2023/12/05 06:43:23;;;;;;;14.82;10.77;;;;;;;15.94;48.31;100172.00;5023636;28;20123;-37
2023/12/05 06:45:50;;;;;;;15.80;10.77;;;;;;;15.97;48.20;100183.22;5026459;28;20130;-38
2023/12/05 06:48:17;;;;;;;13.98;9.73;;;;;;;16.04;48.64;100181.59;5021767;28;20053;-38
2023/12/05 06:50:46;;;;;;;15.02;10.45;;;;;;;16.11;48.72;100178.28;5025157;28;20345;-38
2023/12/05 06:53:13;;;;;;;13.20;9.15;;;;;;;16.19;47.83;100181.84;5025959;28;20049;-38
2023/12/05 06:55:40;;;;;;;13.60;9.35;;;;;;;16.27;48.74;100186.41;5029514;28;20073;-37
2023/12/05 06:58:07;;;;;;;13.57;9.55;;;;;;;16.36;47.86;100195.31;5031694;28;20064;-37
2023/12/05 07:00:34;;;;;;;13.50;8.93;;;;;;;16.42;48.11;100202.72;5027431;28;20068;-37
2023/12/05 07:03:01;;;;;;;12.07;8.90;;;;;;;16.48;47.82;100191.34;5027889;28;20378;-37
2023/12/05 07:05:27;;;;;;;12.23;9.00;;;;;;;16.52;48.20;100208.75;5028517;28;20060;-37
2023/12/05 07:07:54;;;;;;;12.48;9.20;;;;;;;16.56;47.72;100203.94;5031237;28;20048;-37
2023/12/05 07:10:22;;;;;;;12.07;8.70;;;;;;;16.58;47.50;100212.66;5022077;28;20334;-37
2023/12/05 07:12:49;;;;;;;11.95;8.18;;;;;;;16.58;47.61;100221.53;5028963;28;20045;-37
2023/12/05 07:15:15;;;;;;;12.50;8.80;;;;;;;16.58;48.23;100221.53;5023131;28;20064;-37
2023/12/05 07:17:42;;;;;;;17.02;9.13;;;;;;;16.57;47.29;100224.38;5021915;28;20057;-38
2023/12/05 07:20:09;;;;;;;11.32;8.15;;;;;;;16.57;48.06;100235.06;5020934;28;20037;-37
2023/12/05 07:22:36;;;;;;;11.88;8.30;;;;;;;16.62;47.95;100235.41;5026604;28;20794;-37
2023/12/05 07:25:02;;;;;;;12.73;8.73;;;;;;;16.67;47.59;100235.78;5018866;28;20156;-37
2023/12/05 07:27:29;;;;;;;12.93;8.82;;;;;;;16.72;48.38;100245.03;5028395;28;20064;-37
2023/12/05 07:29:56;;;;;;;14.88;8.07;;;;;;;16.78;48.08;100244.41;5023575;28;20057;-37
2023/12/05 07:32:23;;;;;;;14.57;8.48;;;;;;;16.85;47.55;100238.41;5025936;28;20655;-37
2023/12/05 07:34:49;;;;;;;15.45;9.57;;;;;;;16.92;47.97;100236.75;5025432;28;20053;-37
2023/12/05 07:37:17;;;;;;;14.30;8.45;;;;;;;16.98;47.53;100241.47;5026512;28;20085;-37
2023/12/05 07:39:43;;;;;;;13.70;8.50;;;;;;;17.04;47.62;100243.50;5023763;28;20419;-37
2023/12/05 07:42:10;;;;;;;15.80;8.82;;;;;;;17.10;47.45;100247.38;5022114;28;20050;-37
2023/12/05 07:44:37;;;;;;;15.50;8.80;;;;;;;17.14;47.22;100246.06;5021194;28;20145;-37
2023/12/05 07:47:07;;;;;;;14.38;8.13;;;;;;;17.20;47.38;100256.09;5021544;28;20081;-38
2023/12/05 07:49:34;;;;;;;16.75;8.25;;;;;;;17.25;46.84;100259.97;5019553;28;20042;-37
2023/12/05 07:52:01;;;;;;;12.43;8.02;;;;;;;17.30;47.19;100259.50;5023135;28;20049;-37
2023/12/05 07:54:27;;;;;;;13.18;7.35;;;;;;;17.36;47.19;100264.19;5024515;28;20045;-37
2023/12/05 07:56:55;;;;;;;13.75;6.95;;;;;;;17.40;47.03;100262.84;5020681;28;20061;-37
2023/12/05 07:59:21;;;;;;;14.50;8.05;;;;;;;17.44;46.69;100258.84;5022414;28;20529;-37
2023/12/05 08:01:48;;;;;;;14.70;7.18;;;;;;;17.46;46.96;100266.72;5020511;28;20085;-37
2023/12/05 08:04:15;;;;;;;10.55;6.82;;;;;;;17.49;46.82;100267.25;5019776;28;20390;-37
2023/12/05 08:06:42;;;;;;;10.82;6.53;;;;;;;17.52;46.75;100258.84;5024042;28;20053;-37
2023/12/05 08:09:08;;;;;;;12.38;7.13;;;;;;;17.56;46.91;100262.03;5022999;28;20046;-36
2023/12/05 08:11:35;;;;;;;9.15;6.53;;;;;;;17.58;46.67;100261.91;5024566;28;20253;-36
2023/12/05 08:14:02;;;;;;;10.43;6.50;;;;;;;17.61;46.90;100264.22;5016533;28;20097;-37
2023/12/05 08:16:29;;;;;;;9.77;6.72;;;;;;;17.64;46.64;100269.25;5026626;28;20049;-37
2023/12/05 08:18:55;;;;;;;8.82;6.15;;;;;;;17.66;46.70;100273.47;5027567;28;20080;-37
2023/12/05 08:21:23;;;;;;;10.15;6.22;;;;;;;17.68;46.22;100282.16;5029875;28;20049;-37
2023/12/05 08:23:49;;;;;;;8.40;6.05;;;;;;;17.71;46.46;100284.53;5024418;28;20056;-37
2023/12/05 08:26:16;;;;;;;15.73;6.82;;;;;;;17.73;46.31;100292.41;5023119;28;20115;-37
2023/12/05 08:28:42;;;;;;;9.27;6.03;;;;;;;17.75;46.45;100296.63;5021900;28;20037;-37
2023/12/05 08:31:09;;;;;;;8.68;6.55;;;;;;;17.78;46.54;100290.09;5023199;28;20073;-37
2023/12/05 08:33:35;;;;;;;8.02;6.10;;;;;;;17.79;46.70;100294.47;5022745;28;20160;-37
2023/12/05 08:36:02;;;;;;;8.40;6.20;;;;;;;17.80;46.14;100301.47;5027212;28;20052;-37
2023/12/05 08:38:29;;;;;;;8.60;5.72;;;;;;;17.80;45.86;100295.28;5025742;28;20392;-37
2023/12/05 08:40:56;;;;;;;7.20;5.65;;;;;;;17.80;46.43;100303.31;5027500;28;20073;-37
2023/12/05 08:43:23;;;;;;;7.15;5.25;;;;;;;17.79;46.69;100301.66;5034877;28;20065;-36
2023/12/05 08:45:49;;;;;;;7.82;5.53;;;;;;;17.78;46.26;100313.41;5019947;28;20323;-37
2023/12/05 08:48:16;;;;;;;7.15;5.50;;;;;;;17.74;46.12;100308.34;5021149;28;20049;-37
2023/12/05 08:50:43;;;;;;;10.23;5.72;;;;;;;17.72;46.51;100310.31;5021708;28;20057;-36
2023/12/05 08:53:09;;;;;;;7.03;5.20;;;;;;;17.68;46.46;100306.28;5018319;28;20060;-37
2023/12/05 08:55:36;;;;;;;10.52;5.63;;;;;;;17.65;46.33;100314.69;5021179;28;20042;-37
2023/12/05 08:58:03;;;;;;;6.28;4.70;;;;;;;17.61;46.64;100309.78;5025225;28;20331;-37
2023/12/05 09:00:29;;;;;;;7.00;5.03;;;;;;;17.58;46.79;100319.00;5022983;28;20491;-37
2023/12/05 09:02:56;;;;;;;7.35;4.93;;;;;;;17.56;46.60;100322.84;5025465;28;20093;-37
2023/12/05 09:05:23;;;;;;;6.68;4.57;;;;;;;17.55;46.71;100318.50;5030323;28;20085;-37
2023/12/05 09:07:50;;;;;;;8.95;4.60;;;;;;;17.55;46.47;100331.91;5026841;28;20049;-37
2023/12/05 09:10:17;;;;;;;7.13;4.85;;;;;;;17.55;46.60;100332.72;5025821;28;20052;-37
2023/12/05 09:12:43;;;;;;;6.68;4.63;;;;;;;17.56;46.53;100334.41;5023465;28;20095;-37
2023/12/05 09:15:10;;;;;;;5.85;4.68;;;;;;;17.58;46.49;100335.09;5027569;28;20045;-37
2023/12/05 09:17:37;;;;;;;6.80;4.70;;;;;;;17.61;46.55;100341.94;5016585;28;20085;-37
2023/12/05 09:20:04;;;;;;;5.93;4.35;;;;;;;17.64;46.62;100338.94;5026828;28;20839;-37
2023/12/05 09:22:31;;;;;;;6.03;4.57;;;;;;;17.67;46.66;100350.19;5020920;28;20053;-37
2023/12/05 09:24:57;;;;;;;6.32;4.78;;;;;;;17.72;46.16;100347.00;5020893;28;20516;-37
2023/12/05 09:27:24;;;;;;;6.97;5.10;;;;;;;17.76;46.66;100354.59;5041262;28;20116;-37
2023/12/05 09:29:51;;;;;;;5.80;4.55;;;;;;;17.80;46.43;100356.94;5026698;28;20164;-37
2023/12/05 09:32:17;;;;;;;7.00;4.80;;;;;;;17.83;46.57;100359.31;5022388;28;20049;-37
2023/12/05 09:34:45;;;;;;;6.70;4.68;;;;;;;17.86;46.65;100365.19;5021370;28;20088;-37
2023/12/05 09:37:12;;;;;;;6.97;4.97;;;;;;;17.87;46.06;100361.50;5018366;28;20104;-37
2023/12/05 09:39:39;;;;;;;6.95;4.57;;;;;;;17.87;46.72;100368.69;5024281;28;20041;-37
2023/12/05 09:42:10;;;;;;;5.45;4.13;;;;;;;17.86;46.08;100369.72;5024364;28;20499;-37
2023/12/05 09:44:44;;;;;;;5.80;4.20;;;;;;;17.82;46.12;100371.88;5025856;28;20049;-37
2023/12/05 09:47:14;;;;;;;7.03;4.43;;;;;;;17.79;46.31;100372.19;5025247;28;20057;-37
2023/12/05 09:49:42;;;;;;;5.28;3.97;;;;;;;17.75;46.07;100374.34;5020352;28;20566;-37
2023/12/05 09:52:09;;;;;;;5.45;3.72;;;;;;;17.69;46.53;100372.31;5027829;28;20318;-37
2023/12/05 09:54:37;;;;;;;5.85;4.45;;;;;;;17.63;46.29;100382.84;5017191;28;20441;-37
2023/12/05 09:57:05;;;;;;;7.22;4.03;;;;;;;17.56;46.42;100374.59;5026059;28;20138;-38
2023/12/05 09:59:32;;;;;;;5.75;3.67;;;;;;;17.48;46.34;100383.44;5024734;28;20046;-38
2023/12/05 10:02:02;;;;;;;5.43;4.07;;;;;;;17.41;46.64;100395.81;5021815;28;20053;-38
2023/12/05 10:04:35;;;;;;;6.75;3.80;;;;;;;17.36;46.85;100391.91;5025711;28;20092;-37
2023/12/05 10:07:04;;;;;;;5.85;3.60;;;;;;;17.29;47.03;100394.41;5027103;28;20050;-37
2023/12/05 10:09:32;;;;;;;4.95;3.63;;;;;;;17.24;46.92;100396.72;5023042;28;20264;-37
2023/12/05 10:11:59;;;;;;;4.32;3.72;;;;;;;17.18;47.30;100406.25;5026764;28;20127;-38
2023/12/05 10:14:26;;;;;;;4.82;3.90;;;;;;;17.14;46.90;100406.72;5025181;28;20053;-37
2023/12/05 10:16:54;;;;;;;5.05;3.78;;;;;;;17.09;47.31;100417.06;5024484;28;20062;-37
2023/12/05 10:19:21;;;;;;;5.90;4.05;;;;;;;17.06;47.69;100417.38;5027352;28;20053;-38
2023/12/05 10:21:50;;;;;;;4.30;3.45;;;;;;;17.01;47.30;100426.72;5026756;28;20545;-38
2023/12/05 10:24:17;;;;;;;4.63;3.35;;;;;;;16.97;47.69;100422.69;5026771;28;20342;-37
2023/12/05 10:26:48;;;;;;;5.20;3.70;;;;;;;16.94;47.32;100431.03;5023198;28;20049;-38
2023/12/05 10:29:16;;;;;;;5.05;3.75;;;;;;;16.91;47.71;100427.81;5024430;28;20049;-38
2023/12/05 10:31:43;;;;;;;4.95;3.80;;;;;;;16.87;47.94;100431.78;5031655;28;20585;-38
2023/12/05 10:34:09;;;;;;;4.45;3.75;;;;;;;16.85;47.83;100429.28;5025320;28;20057;-38
2023/12/05 10:36:36;;;;;;;4.47;3.63;;;;;;;16.82;47.96;100431.44;5025263;28;20140;-38
2023/12/05 10:39:05;;;;;;;4.35;3.13;;;;;;;16.81;47.58;100432.44;5024734;28;20652;-38
2023/12/05 10:41:31;;;;;;;5.47;3.90;;;;;;;16.78;47.82;100431.75;5024411;28;20045;-38
2023/12/05 10:43:59;;;;;;;5.13;3.25;;;;;;;16.82;47.64;100436.78;5030241;28;20060;-38
2023/12/05 10:46:27;;;;;;;5.65;3.75;;;;;;;16.87;48.30;100443.34;5029100;28;20547;-38
2023/12/05 10:48:54;;;;;;;4.68;3.10;;;;;;;16.95;47.48;100446.06;5027110;28;20057;-38
2023/12/05 10:51:26;;;;;;;6.05;3.83;;;;;;;17.02;47.88;100449.81;5030084;28;20460;-38
2023/12/05 10:53:55;;;;;;;6.38;3.50;;;;;;;17.08;47.81;100456.38;5020921;28;20056;-38
2023/12/05 10:56:23;;;;;;;3.88;3.22;;;;;;;17.15;47.62;100452.06;5020498;28;20058;-37
2023/12/05 10:58:52;;;;;;;6.03;3.80;;;;;;;17.20;47.17;100454.28;5026640;28;20050;-38
2023/12/05 11:01:21;;;;;;;4.40;3.30;;;;;;;17.22;47.56;100455.81;5025885;28;20077;-37
2023/12/05 11:03:50;;;;;;;5.15;3.58;;;;;;;17.24;47.66;100455.63;5023606;28;20052;-37
2023/12/05 11:06:17;;;;;;;5.85;3.58;;;;;;;17.24;47.41;100456.47;5021786;28;20049;-38
2023/12/05 11:08:44;;;;;;;4.40;3.28;;;;;;;17.23;47.26;100452.13;5025599;28;20430;-37
2023/12/05 11:11:13;;;;;;;6.35;4.10;;;;;;;17.22;47.71;100457.66;5022066;28;20053;-37
2023/12/05 11:13:41;;;;;;;6.35;4.22;;;;;;;17.17;46.86;100458.13;5029345;28;20115;-38
2023/12/05 11:16:20;;;;;;;5.22;3.85;;;;;;;17.13;47.21;100461.28;5027876;28;20311;-38
2023/12/05 11:18:58;;;;;;;4.35;2.90;;;;;;;17.09;47.48;100459.91;5024071;28;20421;-38